createdAt,value
2022-08-20T00:01:08.951Z,96850.75
2022-08-20T00:03:39.162Z,96852.50
2022-08-20T00:06:10.461Z,96855.19
2022-08-20T00:08:39.054Z,96857.63
2022-08-20T00:11:11.184Z,96861.75
2022-08-20T00:13:42.251Z,96860.72
2022-08-20T00:16:10.922Z,96857.31
2022-08-20T00:18:39.333Z,96858.81
2022-08-20T00:21:09.222Z,96864.84
2022-08-20T00:23:41.601Z,96852.84
2022-08-20T00:26:12.519Z,96867.47
2022-08-20T00:28:41.433Z,96858.44
2022-08-20T00:31:34.269Z,96863.25
2022-08-20T00:34:02.552Z,96871.06
2022-08-20T00:36:32.673Z,96866.25
2022-08-20T00:39:01.830Z,96865.84
2022-08-20T00:41:32.359Z,96867.47
2022-08-20T00:44:13.478Z,96865.06
2022-08-20T00:46:43.036Z,96867.06
2022-08-20T00:49:16.769Z,96860.47
2022-08-20T00:51:47.469Z,96855.25
2022-08-20T00:54:18.059Z,96854.31
2022-08-20T00:56:51.289Z,96854.66
2022-08-20T00:59:23.390Z,96860.00
2022-08-20T01:01:55.107Z,96861.03
2022-08-20T01:04:26.509Z,96853.63
2022-08-20T01:06:55.262Z,96856.06
2022-08-20T01:09:50.348Z,96854.66
2022-08-20T01:12:20.197Z,96859.56
2022-08-20T01:14:48.960Z,96852.56
2022-08-20T01:17:22.422Z,96855.03
2022-08-20T01:19:53.193Z,96856.88
2022-08-20T01:22:44.279Z,96850.50
2022-08-20T01:25:17.300Z,96854.00
2022-08-20T01:27:55.156Z,96850.75
2022-08-20T01:30:26.553Z,96862.94
2022-08-20T01:32:54.680Z,96859.47
2022-08-20T01:35:25.926Z,96865.97
2022-08-20T01:37:54.561Z,96861.69
2022-08-20T01:40:34.330Z,96854.91
2022-08-20T01:43:09.739Z,96861.41
2022-08-20T01:45:40.056Z,96859.22
2022-08-20T01:48:08.491Z,96860.25
2022-08-20T01:50:42.090Z,96862.69
2022-08-20T01:53:19.211Z,96860.00
2022-08-20T01:55:47.732Z,96847.34
2022-08-20T01:58:17.282Z,96862.69
2022-08-20T02:00:45.501Z,96857.78
2022-08-20T02:03:13.562Z,96854.91
2022-08-20T02:05:41.731Z,96864.38
2022-08-20T02:08:09.891Z,96859.88
2022-08-20T02:10:38.089Z,96863.41
2022-08-20T02:13:08.892Z,96861.13
2022-08-20T02:15:39.739Z,96859.28
2022-08-20T02:18:11.032Z,96863.59
2022-08-20T02:20:39.786Z,96865.50
2022-08-20T02:23:08.284Z,96860.75
2022-08-20T02:25:38.463Z,96863.41
2022-08-20T02:28:09.305Z,96866.47
2022-08-20T02:30:41.532Z,96861.78
2022-08-20T02:33:12.349Z,96858.66
2022-08-20T02:35:42.965Z,96865.22
2022-08-20T02:38:11.661Z,96855.13
2022-08-20T02:40:40.209Z,96856.53
2022-08-20T02:43:08.351Z,96858.50
2022-08-20T02:45:37.489Z,96854.44
2022-08-20T02:48:07.282Z,96857.00
2022-08-20T02:50:35.602Z,96866.97
2022-08-20T02:53:03.729Z,96866.97
2022-08-20T02:55:31.884Z,96864.91
2022-08-20T02:58:01.341Z,96875.81
2022-08-20T03:00:38.057Z,96867.81
2022-08-20T03:03:09.314Z,96875.56
2022-08-20T03:05:39.794Z,96874.31
2022-08-20T03:08:09.176Z,96877.94
2022-08-20T03:10:39.230Z,96882.09
2022-08-20T03:13:11.391Z,96884.31
2022-08-20T03:15:41.012Z,96881.66
2022-08-20T03:18:10.933Z,96891.88
2022-08-20T03:20:39.292Z,96888.41
2022-08-20T03:23:08.103Z,96886.06
2022-08-20T03:25:36.522Z,96886.78
2022-08-20T03:28:05.363Z,96892.50
2022-08-20T03:30:33.692Z,96889.94
2022-08-20T03:33:01.841Z,96886.91
2022-08-20T03:35:33.629Z,96883.84
2022-08-20T03:38:01.841Z,96883.53
2022-08-20T03:40:32.863Z,96890.50
2022-08-20T03:43:01.065Z,96888.22
2022-08-20T03:45:30.085Z,96890.88
2022-08-20T03:47:58.939Z,96894.13
2022-08-20T03:50:29.752Z,96901.22
2022-08-20T03:53:00.232Z,96901.69
2022-08-20T03:55:30.559Z,96899.75
2022-08-20T03:58:02.952Z,96900.06
2022-08-20T04:00:37.624Z,96900.66
2022-08-20T04:03:08.483Z,96906.34
2022-08-20T04:05:40.869Z,96911.00
2022-08-20T04:08:12.004Z,96913.91
2022-08-20T04:10:40.712Z,96910.63
2022-08-20T04:13:09.602Z,96902.31
2022-08-20T04:15:38.545Z,96896.22
2022-08-20T04:18:09.132Z,96896.34
2022-08-20T04:20:38.970Z,96894.25
2022-08-20T04:23:08.242Z,96903.31
2022-08-20T04:25:42.575Z,96899.72
2022-08-20T04:28:15.261Z,96907.97
2022-08-20T04:30:51.608Z,96904.69
2022-08-20T04:33:22.655Z,96907.63
2022-08-20T04:36:03.082Z,96913.41
2022-08-20T04:38:50.540Z,96911.78
2022-08-20T04:41:23.731Z,96911.22
2022-08-20T04:43:54.311Z,96917.25
2022-08-20T04:46:26.058Z,96919.94
2022-08-20T04:48:54.494Z,96916.22
2022-08-20T04:51:23.541Z,96916.88
2022-08-20T04:53:54.387Z,96924.31
2022-08-20T04:56:26.161Z,96928.53
2022-08-20T04:58:55.873Z,96923.81
2022-08-20T05:01:25.556Z,96926.63
2022-08-20T05:03:55.441Z,96935.16
2022-08-20T05:06:26.105Z,96937.28
2022-08-20T05:08:54.387Z,96940.94
2022-08-20T05:11:34.973Z,96939.44
2022-08-20T05:14:06.215Z,96936.03
2022-08-20T05:16:39.209Z,96947.50
2022-08-20T05:19:09.022Z,96944.44
2022-08-20T05:21:37.654Z,96942.03
2022-08-20T05:24:06.849Z,96960.25
2022-08-20T05:26:36.395Z,96955.53
2022-08-20T05:29:06.471Z,96950.78
2022-08-20T05:31:35.384Z,96951.88
2022-08-20T05:34:03.842Z,96950.59
2022-08-20T05:36:31.992Z,96949.88
2022-08-20T05:39:00.249Z,96950.59
2022-08-20T05:41:30.426Z,96958.97
2022-08-20T05:44:01.993Z,96950.88
2022-08-20T05:46:31.515Z,96955.75
2022-08-20T05:49:02.076Z,96955.50
2022-08-20T05:51:30.622Z,96952.63
2022-08-20T05:53:59.414Z,96943.31
2022-08-20T05:56:30.841Z,96940.28
2022-08-20T05:59:03.835Z,96939.00
2022-08-20T06:01:32.685Z,96951.25
2022-08-20T06:04:18.331Z,96945.06
2022-08-20T06:06:47.408Z,96944.13
2022-08-20T06:09:31.959Z,96947.63
2022-08-20T06:12:02.511Z,96942.50
2022-08-20T06:14:32.491Z,96940.84
2022-08-20T06:17:07.570Z,96949.00
2022-08-20T06:19:35.971Z,96953.44
2022-08-20T06:22:17.634Z,96951.72
2022-08-20T06:24:49.544Z,96954.22
2022-08-20T06:27:20.323Z,96960.03
2022-08-20T06:29:50.614Z,96963.03
2022-08-20T06:32:31.757Z,96966.19
2022-08-20T06:35:03.711Z,96966.41
2022-08-20T06:37:33.152Z,96961.41
2022-08-20T06:40:02.878Z,96969.25
2022-08-20T06:42:31.113Z,96962.75
2022-08-20T06:45:00.644Z,96964.53
2022-08-20T06:47:28.760Z,96965.41
2022-08-20T06:49:56.913Z,96965.88
2022-08-20T06:52:35.057Z,96965.69
2022-08-20T06:55:13.522Z,96973.06
2022-08-20T06:57:41.992Z,96965.00
2022-08-20T07:00:14.472Z,96964.25
2022-08-20T07:02:42.712Z,96966.09
2022-08-20T07:05:11.802Z,96964.53
2022-08-20T07:07:39.952Z,96978.06
2022-08-20T07:10:09.772Z,96972.34
2022-08-20T07:12:37.875Z,96979.25
2022-08-20T07:15:07.400Z,96969.00
2022-08-20T07:17:37.062Z,96963.47
2022-08-20T07:20:06.124Z,96973.69
2022-08-20T07:22:35.683Z,96971.16
2022-08-20T07:25:04.354Z,96978.03
2022-08-20T07:27:32.612Z,96977.84
2022-08-20T07:30:18.171Z,96984.91
2022-08-20T07:32:49.764Z,96986.78
2022-08-20T07:35:20.395Z,96986.31
2022-08-20T07:37:50.182Z,96986.88
2022-08-20T07:40:25.358Z,96993.38
2022-08-20T07:42:54.838Z,96988.75
2022-08-20T07:45:24.053Z,96988.38
2022-08-20T07:47:54.382Z,96997.78
2022-08-20T07:50:25.842Z,96995.19
2022-08-20T07:52:54.273Z,97003.75
2022-08-20T07:55:22.745Z,97010.75
2022-08-20T07:57:51.802Z,97006.41
2022-08-20T08:00:21.860Z,97011.94
2022-08-20T08:02:50.002Z,97011.19
2022-08-20T08:05:19.882Z,97009.91
2022-08-20T08:07:48.031Z,97006.97
2022-08-20T08:10:19.683Z,97007.94
2022-08-20T08:12:50.241Z,97004.41
2022-08-20T08:15:21.632Z,97010.00
2022-08-20T08:17:51.051Z,97011.94
2022-08-20T08:20:22.778Z,97011.31
2022-08-20T08:22:51.116Z,97018.28
2022-08-20T08:25:19.657Z,97021.31
2022-08-20T08:27:49.231Z,97019.19
2022-08-20T08:30:18.589Z,97014.31
2022-08-20T08:33:04.462Z,97012.28
2022-08-20T08:35:34.363Z,97013.84
2022-08-20T08:38:02.972Z,97018.72
2022-08-20T08:40:32.072Z,97019.63
2022-08-20T08:43:02.908Z,97020.75
2022-08-20T08:45:45.669Z,97024.81
2022-08-20T08:48:18.519Z,97030.09
2022-08-20T08:50:53.890Z,97031.56
2022-08-20T08:53:26.986Z,97031.88
2022-08-20T08:55:55.324Z,97021.63
2022-08-20T08:58:23.417Z,97025.16
2022-08-20T09:00:56.367Z,97029.47
2022-08-20T09:03:29.507Z,97033.06
2022-08-20T09:06:06.437Z,97031.06
2022-08-20T09:08:38.358Z,97037.31
2022-08-20T09:11:08.737Z,97038.06
2022-08-20T09:13:36.881Z,97034.41
2022-08-20T09:16:05.418Z,97044.03
2022-08-20T09:18:33.797Z,97036.19
2022-08-20T09:21:03.199Z,97036.28
2022-08-20T09:23:31.348Z,97036.75
2022-08-20T09:25:59.498Z,97038.88
2022-08-20T09:28:32.201Z,97037.81
2022-08-20T09:31:03.544Z,97039.97
2022-08-20T09:33:32.632Z,97043.66
2022-08-20T09:36:02.067Z,97048.03
2022-08-20T09:38:30.208Z,97049.16
2022-08-20T09:40:58.247Z,97047.13
2022-08-20T09:43:26.357Z,97050.25
2022-08-20T09:45:54.396Z,97055.94
2022-08-20T09:48:32.114Z,97050.81
2022-08-20T09:51:00.478Z,97059.63
2022-08-20T09:53:31.229Z,97049.59
2022-08-20T09:56:00.330Z,97054.63
2022-08-20T09:58:35.751Z,97043.69
2022-08-20T10:01:14.101Z,97050.13
2022-08-20T10:03:42.820Z,97056.50
2022-08-20T10:06:11.430Z,97054.09
2022-08-20T10:08:40.887Z,97050.13
2022-08-20T10:11:08.918Z,97056.56
2022-08-20T10:13:36.948Z,97057.88
2022-08-20T10:16:05.438Z,97050.47
2022-08-20T10:18:33.502Z,97043.22
2022-08-20T10:21:01.532Z,97058.25
2022-08-20T10:23:29.577Z,97052.09
2022-08-20T10:25:59.047Z,97057.75
2022-08-20T10:28:27.058Z,97056.22
2022-08-20T10:30:55.077Z,97053.03
2022-08-20T10:33:23.148Z,97053.75
2022-08-20T10:35:51.188Z,97049.81
2022-08-20T10:38:22.937Z,97057.19
2022-08-20T10:40:52.412Z,97060.38
2022-08-20T10:43:22.202Z,97059.97
2022-08-20T10:45:50.237Z,97055.03
2022-08-20T10:48:21.375Z,97051.31
2022-08-20T10:50:49.818Z,97061.41
2022-08-20T10:53:18.178Z,97059.13
2022-08-20T10:55:46.417Z,97071.53
2022-08-20T10:58:14.469Z,97068.69
2022-08-20T11:00:45.797Z,97071.78
2022-08-20T11:03:13.901Z,97081.78
2022-08-20T11:05:41.955Z,97086.44
2022-08-20T11:08:10.078Z,97085.47
2022-08-20T11:10:39.038Z,97084.38
2022-08-20T11:13:08.678Z,97079.94
2022-08-20T11:15:39.717Z,97073.88
2022-08-20T11:18:09.988Z,97083.34
2022-08-20T11:20:38.489Z,97076.84
2022-08-20T11:23:06.667Z,97084.59
2022-08-20T11:25:34.750Z,97079.22
2022-08-20T11:28:03.663Z,97081.28
2022-08-20T11:30:33.317Z,97083.53
2022-08-20T11:33:02.177Z,97078.09
2022-08-20T11:35:50.140Z,97071.66
2022-08-20T11:38:19.111Z,97067.38
2022-08-20T11:40:47.560Z,97068.78
2022-08-20T11:43:17.019Z,97070.47
2022-08-20T11:45:46.838Z,97073.22
2022-08-20T11:48:14.937Z,97069.25
2022-08-20T11:50:44.447Z,97073.84
2022-08-20T11:53:12.508Z,97068.16
2022-08-20T11:55:41.496Z,97066.00
2022-08-20T11:58:09.510Z,97070.00
2022-08-20T12:00:37.667Z,97072.59
2022-08-20T12:03:08.840Z,97071.44
2022-08-20T12:05:38.148Z,97073.97
2022-08-20T12:08:08.560Z,97071.72
2022-08-20T12:10:37.307Z,97072.41
2022-08-20T12:13:05.578Z,97071.00
2022-08-20T12:15:33.996Z,97062.91
2022-08-20T12:18:03.608Z,97064.56
2022-08-20T12:20:31.697Z,97066.00
2022-08-20T12:23:00.076Z,97064.63
2022-08-20T12:25:29.587Z,97062.75
2022-08-20T12:27:57.672Z,97062.75
2022-08-20T12:30:25.958Z,97064.88
2022-08-20T12:32:53.975Z,97062.41
2022-08-20T12:35:31.138Z,97065.50
2022-08-20T12:37:59.940Z,97059.88
2022-08-20T12:40:30.668Z,97058.38
2022-08-20T12:43:00.409Z,97051.00
2022-08-20T12:45:28.527Z,97058.75
2022-08-20T12:48:02.708Z,97060.88
2022-08-20T12:50:35.039Z,97053.94
2022-08-20T12:53:05.027Z,97042.59
2022-08-20T12:55:34.937Z,97054.81
2022-08-20T12:58:04.391Z,97061.59
2022-08-20T13:00:34.516Z,97062.50
2022-08-20T13:03:04.583Z,97061.31
2022-08-20T13:05:33.628Z,97055.03
2022-08-20T13:08:02.101Z,97065.06
2022-08-20T13:10:33.087Z,97059.59
2022-08-20T13:13:03.133Z,97063.50
2022-08-20T13:15:31.535Z,97057.88
2022-08-20T13:18:01.149Z,97051.72
2022-08-20T13:20:34.112Z,97059.34
2022-08-20T13:23:03.537Z,97057.41
2022-08-20T13:25:31.749Z,97058.13
2022-08-20T13:28:01.457Z,97055.00
2022-08-20T13:30:31.500Z,97053.22
2022-08-20T13:32:59.569Z,97054.34
2022-08-20T13:35:28.228Z,97051.09
2022-08-20T13:37:56.251Z,97044.44
2022-08-20T13:40:24.521Z,97046.41
2022-08-20T13:42:52.651Z,97048.34
2022-08-20T13:45:20.849Z,97045.75
2022-08-20T13:47:53.644Z,97046.25
2022-08-20T13:50:26.790Z,97035.03
2022-08-20T13:52:56.292Z,97033.47
2022-08-20T13:55:25.828Z,97045.38
2022-08-20T13:57:54.766Z,97047.22
2022-08-20T14:00:31.423Z,97047.81
2022-08-20T14:03:02.236Z,97048.31
2022-08-20T14:05:30.571Z,97042.84
2022-08-20T14:08:06.416Z,97046.94
2022-08-20T14:10:34.548Z,97045.91
2022-08-20T14:13:05.847Z,97046.59
2022-08-20T14:15:34.111Z,97047.53
2022-08-20T14:18:03.989Z,97040.47
2022-08-20T14:20:34.367Z,97039.53
2022-08-20T14:23:03.107Z,97037.75
2022-08-20T14:25:31.996Z,97040.69
2022-08-20T14:28:02.066Z,97029.91
2022-08-20T14:30:31.739Z,97033.94
2022-08-20T14:32:59.850Z,97033.28
2022-08-20T14:35:29.437Z,97037.97
2022-08-20T14:37:59.065Z,97021.72
2022-08-20T14:40:28.939Z,97016.50
2022-08-20T14:42:57.479Z,97020.31
2022-08-20T14:45:26.067Z,97022.47
2022-08-20T14:47:55.478Z,97021.59
2022-08-20T14:50:25.629Z,97023.22
2022-08-20T14:52:56.058Z,97022.97
2022-08-20T14:55:26.760Z,97029.63
2022-08-20T14:57:55.061Z,97026.28
2022-08-20T15:00:26.468Z,97030.84
2022-08-20T15:02:54.690Z,97021.72
2022-08-20T15:05:22.826Z,97029.72
2022-08-20T15:07:54.415Z,97024.78
2022-08-20T15:10:25.054Z,97023.22
2022-08-20T15:12:53.220Z,97022.28
2022-08-20T15:15:22.009Z,97016.31
2022-08-20T15:17:52.860Z,97021.00
2022-08-20T15:20:23.220Z,97019.66
2022-08-20T15:22:52.300Z,97022.31
2022-08-20T15:27:51.999Z,97027.75
2022-08-20T15:30:22.655Z,97021.56
2022-08-20T15:32:54.828Z,97027.41
2022-08-20T15:35:23.628Z,97029.09
2022-08-20T15:37:54.614Z,97029.97
2022-08-20T15:40:28.218Z,97032.63
2022-08-20T15:42:57.172Z,97031.50
2022-08-20T15:45:25.431Z,97039.88
2022-08-20T15:47:56.771Z,97043.06
2022-08-20T15:50:35.551Z,97044.06
2022-08-20T15:53:12.000Z,97040.09
2022-08-20T15:55:45.001Z,97037.00
2022-08-20T15:58:18.600Z,97040.41
2022-08-20T16:00:53.035Z,97044.66
2022-08-20T16:03:47.356Z,97046.13
2022-08-20T16:06:18.943Z,97044.03
2022-08-20T16:09:07.960Z,97039.44
2022-08-20T16:11:46.640Z,97046.78
2022-08-20T16:14:17.229Z,97045.22
2022-08-20T16:16:46.754Z,97050.59
2022-08-20T16:19:19.138Z,97057.31
2022-08-20T16:21:47.814Z,97049.81
2022-08-20T16:24:16.694Z,97052.00
2022-08-20T16:26:59.675Z,97051.09
2022-08-20T16:29:34.603Z,97053.56
2022-08-20T16:32:07.684Z,97060.16
2022-08-20T16:34:40.213Z,97063.38
2022-08-20T16:37:20.204Z,97059.63
2022-08-20T16:39:56.545Z,97058.75
2022-08-20T16:42:27.544Z,97060.72
2022-08-20T16:44:56.525Z,97058.69
2022-08-20T16:47:28.872Z,97066.31
2022-08-20T16:50:02.064Z,97071.72
2022-08-20T16:52:30.283Z,97065.34
2022-08-20T16:54:58.623Z,97071.31
2022-08-20T16:57:29.473Z,97068.78
2022-08-20T17:00:00.197Z,97069.19
2022-08-20T17:02:28.385Z,97072.38
2022-08-20T17:04:59.173Z,97076.75
2022-08-20T17:07:33.506Z,97072.75
2022-08-20T17:10:12.663Z,97083.59
2022-08-20T17:12:42.223Z,97079.75
2022-08-20T17:15:20.454Z,97085.53
2022-08-20T17:17:48.664Z,97087.50
2022-08-20T17:20:19.926Z,97092.88
2022-08-20T17:22:52.064Z,97091.91
2022-08-20T17:25:23.183Z,97087.81
2022-08-20T17:27:52.767Z,97091.94
2022-08-20T17:30:25.063Z,97091.72
2022-08-20T17:32:58.662Z,97085.13
2022-08-20T17:35:33.933Z,97096.31
2022-08-20T17:38:03.683Z,97083.78
2022-08-20T17:40:36.211Z,97102.44
2022-08-20T17:43:11.826Z,97104.94
2022-08-20T17:45:43.785Z,97106.72
2022-08-20T17:48:15.764Z,97106.81
2022-08-20T17:50:45.164Z,97103.06
2022-08-20T17:53:23.341Z,97094.56
2022-08-20T17:55:54.846Z,97092.69
2022-08-20T17:58:36.805Z,97104.03
2022-08-20T18:01:09.072Z,97110.78
2022-08-20T18:03:41.412Z,97115.94
2022-08-20T18:06:13.544Z,97132.84
2022-08-20T18:08:51.261Z,97137.88
2022-08-20T18:11:25.244Z,97138.91
2022-08-20T18:14:19.915Z,97135.88
2022-08-20T18:17:03.583Z,97135.66
2022-08-20T18:19:49.834Z,97127.47
2022-08-20T18:22:20.293Z,97119.34
2022-08-20T18:24:54.012Z,97132.97
2022-08-20T18:27:25.502Z,97128.63
2022-08-20T18:29:58.003Z,97130.63
2022-08-20T18:32:30.333Z,97129.41
2022-08-20T18:35:10.460Z,97129.66
2022-08-20T18:37:38.682Z,97131.16
2022-08-20T18:40:12.288Z,97136.03
2022-08-20T18:42:40.491Z,97131.97
2022-08-20T18:45:10.810Z,97139.03
2022-08-20T18:47:45.268Z,97131.00
2022-08-20T18:50:21.923Z,97134.72
2022-08-20T18:52:51.771Z,97132.91
2022-08-20T18:55:31.573Z,97126.59
2022-08-20T18:58:02.323Z,97132.53
2022-08-20T19:00:38.833Z,97131.72
2022-08-20T19:03:15.973Z,97133.41
2022-08-20T19:06:04.186Z,97140.59
2022-08-20T19:08:42.960Z,97131.03
2022-08-20T19:11:35.304Z,97138.22
2022-08-20T19:14:27.268Z,97121.94
2022-08-20T19:17:01.506Z,97121.13
2022-08-20T19:19:32.819Z,97122.75
2022-08-20T19:22:02.049Z,97120.28
2022-08-20T19:24:31.957Z,97127.06
2022-08-20T19:27:02.776Z,97123.78
2022-08-20T19:29:32.906Z,97130.88
2022-08-20T19:32:04.497Z,97124.81
2022-08-20T19:34:32.647Z,97125.19
2022-08-20T19:37:09.099Z,97122.00
2022-08-20T19:39:53.330Z,97118.06
2022-08-20T19:42:24.527Z,97117.19
2022-08-20T19:44:57.246Z,97122.31
2022-08-20T19:47:32.257Z,97116.16
2022-08-20T19:50:13.377Z,97111.50
2022-08-20T19:52:48.407Z,97119.66
2022-08-20T19:55:22.897Z,97121.03
2022-08-20T19:57:52.776Z,97116.59
2022-08-20T20:00:25.598Z,97112.41
2022-08-20T20:02:55.037Z,97123.97
2022-08-20T20:05:23.957Z,97123.50
2022-08-20T20:07:54.967Z,97122.22
2022-08-20T20:10:32.163Z,97122.09
2022-08-20T20:13:08.175Z,97127.09
2022-08-20T20:15:36.667Z,97128.28
2022-08-20T20:18:06.245Z,97127.13
2022-08-20T20:20:38.627Z,97131.19
2022-08-20T20:23:26.913Z,97126.19
2022-08-20T20:25:59.407Z,97126.09
2022-08-20T20:28:29.268Z,97120.59
2022-08-20T20:31:09.087Z,97119.69
2022-08-20T20:33:44.119Z,97119.19
2022-08-20T20:36:15.988Z,97121.16
2022-08-20T20:38:54.576Z,97120.88
2022-08-20T20:41:25.159Z,97127.84
2022-08-20T20:44:01.031Z,97119.31
2022-08-20T20:46:30.147Z,97121.16
2022-08-20T20:49:02.313Z,97117.38
2022-08-20T20:51:32.619Z,97112.50
2022-08-20T20:54:03.244Z,97111.75
2022-08-20T20:56:34.621Z,97111.66
2022-08-20T20:59:06.583Z,97106.72
2022-08-20T21:01:45.758Z,97110.25
2022-08-20T21:04:20.697Z,97111.28
2022-08-20T21:06:49.430Z,97110.09
2022-08-20T21:09:18.794Z,97106.13
2022-08-20T21:11:46.948Z,97118.59
2022-08-20T21:14:15.347Z,97113.19
2022-08-20T21:16:43.947Z,97117.03
2022-08-20T21:19:12.855Z,97111.38
2022-08-20T21:21:43.007Z,97116.03
2022-08-20T21:24:11.147Z,97113.03
2022-08-20T21:26:39.597Z,97122.19
2022-08-20T21:29:09.318Z,97114.16
2022-08-20T21:31:43.731Z,97118.66
2022-08-20T21:34:12.467Z,97119.25
2022-08-20T21:36:40.647Z,97109.78
2022-08-20T21:39:10.612Z,97110.19
2022-08-20T21:41:39.327Z,97108.81
2022-08-20T21:44:13.827Z,97113.91
2022-08-20T21:46:43.487Z,97116.91
2022-08-20T21:49:11.577Z,97117.41
2022-08-20T21:51:39.607Z,97122.38
2022-08-20T21:54:07.647Z,97116.13
2022-08-20T21:56:37.717Z,97118.59
2022-08-20T21:59:08.367Z,97117.19
2022-08-20T22:01:36.821Z,97116.31
2022-08-20T22:04:06.770Z,97107.97
2022-08-20T22:06:34.948Z,97103.91
2022-08-20T22:09:03.056Z,97110.06
2022-08-20T22:11:31.214Z,97108.59
2022-08-20T22:14:00.817Z,97105.97
2022-08-20T22:16:29.430Z,97109.25
2022-08-20T22:18:57.458Z,97106.13
2022-08-20T22:21:27.297Z,97109.78
2022-08-20T22:23:56.718Z,97110.50
2022-08-20T22:26:27.184Z,97105.59
2022-08-20T22:28:55.520Z,97103.91
2022-08-20T22:31:27.664Z,97107.84
2022-08-20T22:33:55.945Z,97110.09
2022-08-20T22:36:24.955Z,97109.63
2022-08-20T22:38:54.603Z,97106.72
2022-08-20T22:41:23.527Z,97105.75
2022-08-20T22:43:56.306Z,97110.59
2022-08-20T22:46:28.269Z,97107.72
2022-08-20T22:48:56.837Z,97104.81
2022-08-20T22:51:30.256Z,97101.97
2022-08-20T22:53:58.645Z,97104.22
2022-08-20T22:56:26.826Z,97106.50
2022-08-20T22:58:59.647Z,97102.03
2022-08-20T23:01:30.017Z,97100.25
2022-08-20T23:04:07.396Z,97095.31
2022-08-20T23:06:35.447Z,97094.84
2022-08-20T23:09:03.476Z,97093.88
2022-08-20T23:11:32.206Z,97090.25
2022-08-20T23:14:00.236Z,97087.19
2022-08-20T23:16:29.681Z,97096.84
2022-08-20T23:18:57.677Z,97104.03
2022-08-20T23:21:26.118Z,97103.44
2022-08-20T23:23:54.216Z,97104.03
2022-08-20T23:26:31.986Z,97096.25
2022-08-20T23:29:00.776Z,97098.19
2022-08-20T23:31:30.267Z,97091.72
2022-08-20T23:33:58.346Z,97097.16
2022-08-20T23:36:26.705Z,97101.22
2022-08-20T23:38:55.066Z,97099.72
2022-08-20T23:41:24.644Z,97094.38
2022-08-20T23:43:52.796Z,97085.19
2022-08-20T23:46:22.325Z,97095.72
2022-08-20T23:48:53.095Z,97085.47
2022-08-20T23:51:21.537Z,97085.31
2022-08-20T23:53:49.586Z,97086.31
2022-08-20T23:56:18.206Z,97082.97
2022-08-20T23:58:46.407Z,97076.50
